Date,TemperatureHighF,TemperatureAvgF,TemperatureLowF,DewpointHighF,DewpointAvgF,DewpointLowF,HumidityHigh,HumidityAvg,HumidityLow,PressureMaxIn,PressureMinIn,WindSpeedMaxMPH,WindSpeedAvgMPH,GustSpeedMaxMPH,PrecipitationSumIn
2013-2-1,21.2,13.4,7.5,9.8,5.5,2.6,82,70,53,30.42,30.05,24,8,24,0.00
2013-2-2,25.9,19.6,12.4,23.5,17.3,6.5,99,91,73,30.38,30.06,16,6,16,0.00
2013-2-3,28.2,18.0,13.1,17.1,13.6,11.4,95,83,58,30.16,30.02,15,3,15,0.00
2013-2-4,26.6,21.0,14.4,24.0,19.3,11.7,99,93,82,30.16,29.95,8,2,8,0.00
2013-2-5,32.0,25.0,17.8,28.9,22.5,17.6,99,91,68,30.08,29.94,10,3,10,0.00
2013-2-6,36.9,27.5,18.1,29.4,16.8,10.4,99,67,35,30.40,30.08,9,2,9,0.02
2013-2-7,48.9,31.5,20.5,31.1,22.0,15.2,84,69,47,30.38,30.08,6,2,6,0.00
2013-2-8,40.8,31.1,22.3,37.7,27.3,18.7,99,86,72,30.44,29.86,8,1,8,0.15
2013-2-9,38.7,25.0,13.8,23.5,18.6,13.1,98,78,50,30.55,30.38,4,1,4,0.00
2013-2-10,45.7,36.5,22.6,40.8,26.7,19.9,96,68,55,30.37,29.87,14,4,14,0.00
2013-2-11,48.2,36.3,32.4,46.5,27.2,20.4,99,70,63,30.07,29.76,34,11,34,0.01
2013-2-12,44.1,33.6,27.3,27.9,24.6,21.9,96,70,46,30.21,30.03,16,4,16,0.00
2013-2-13,27.5,26.4,24.8,27.1,26.0,24.5,99,98,96,30.05,30.01,4,1,4,0.00
2013-2-14,43.3,36.5,29.8,37.8,32.4,28.2,99,86,70,30.03,29.86,14,7,14,0.00
2013-2-15,34.7,30.5,23.4,28.8,22.8,15.7,84,73,59,30.24,30.03,7,3,7,0.00
2013-2-16,30.7,22.0,16.5,22.6,14.2,2.9,97,73,48,30.23,30.09,8,3,8,0.00
2013-2-17,31.3,21.8,12.6,15.1,7.3,1.9,90,56,30,30.32,30.17,11,2,11,0.00
2013-2-18,54.0,34.9,17.2,34.0,21.4,10.2,75,59,42,30.33,29.78,17,6,17,0.00
2013-2-19,46.0,27.8,15.6,42.2,22.2,7.4,99,79,62,30.14,29.65,27,10,27,0.06
2013-2-20,24.3,20.0,16.0,17.9,12.4,7.5,84,72,63,30.38,30.14,19,5,19,0.00
2013-2-21,27.7,22.7,20.3,18.7,15.4,13.9,79,73,59,30.47,30.31,11,4,11,0.00
2013-2-22,32.2,24.6,20.8,31.8,22.3,14.5,99,91,76,30.32,30.02,11,4,11,0.00
2013-2-23,35.1,32.1,27.9,32.2,24.4,20.2,99,74,57,30.08,30.01,10,4,10,0.00
2013-2-24,42.8,31.9,25.9,23.8,21.3,18.9,78,66,44,30.26,30.04,11,3,11,0.00
2013-2-25,46.8,36.7,20.7,31.4,24.4,20.4,99,63,38,30.33,30.14,11,3,11,0.00
2013-2-26,45.5,33.0,28.8,40.9,30.6,23.9,99,91,73,30.14,29.54,12,3,12,0.63
2013-2-27,48.0,36.2,31.6,41.6,36.0,31.2,99,99,96,29.75,29.55,19,6,19,0.20
2013-2-28,40.1,34.4,31.3,37.3,32.3,28.3,99,92,79,30.05,29.70,13,3,13,0.14